Terminal Aerodrome Forecast
Issued by NWS

Home | Current Version | Previous Version | Text Only | Print | Product List | Glossary On
Versions: 1 2 3 4 5 6 7 8 9 10 11
000
FTUS46 KHNX 290530
TAFMCE
TAF
KMCE 290530Z 2906/3006 VRB03KT 4SM BR SKC
     FM291200 00000KT 1SM BR SKC
     FM291800 VRB03KT 3SM BR SKC
     FM292100 32005KT P6SM FEW200=

USA.gov is the U.S. government's official web portal to all federal, state and local government web resources and services.